Airfield :
LOGIN :

Register | Disclaimer

   EN    FR    IT 

 










Legend :    VFR   Marginal VFR   IFR   Intensive IFR   Very Intensive IFR
Visi :
Ceiling :
>= 8 km
>= 3000ft
5 to 8 km
1000 to 3000 ft
1500m to 5 km
500 to 1000 ft
800 to 1500m
200 to 500 ft
< 800m
< 200 ft
Symbols :   Thunderstorms  Fog  Heavy snow  Heavy precipitations  Wind > 20 kt
SIGMETs :     Misc.  Thunderstorms  Icing  Turbulence  Mountain Waves  Volcanic Ashes






- Airport Elevation : 3 ft
- IATA code : LWR


EHLW - Leuuwarden Air Base

CURRENT METAR :
  • 060955Z AUTO 20016KT 170V230 3100 R23/P3000N BR OVC003 06/06 Q1004 YLO 20017G28KT 2500 DZRA BKN003

EXPIRED METARs :
  • 060929Z AUTO 20015KT 170V230 2700 R23/P3000U -RA OVC002 06/06 Q1004 AMB 20017G28KT 2500 DZRA BKN003
  • 060925Z AUTO 21014KT 170V230 2700 R23/3000U -RA BKN003 FEW015CB 06/06 Q1004 RERA REDZ YLO 20017G28KT 2500 DZRA BKN003
  • 060917Z AUTO 20016KT 170V230 1900 R23/2200D -SHUP BKN003 FEW015CB 06/06 Q1004 YLO 20017G28KT 2500 DZRA BKN003
  • 060904Z AUTO 21014KT 170V230 2400 R23/2700U +DZRA BKN003 FEW015CB 06/06 Q1005 YLO 20017G28KT 2500 DZRA BKN003
  • 060840Z AUTO 21016KT 170V230 3000 R23/P3000U -RA OVC003 06/06 Q1005 YLO 20017G28KT 2500 DZRA BKN003
  • 060828Z AUTO 21015KT 170V240 2800 R23/2900N DZRA BKN003 FEW015CB 06/06 Q1005 YLO 20017G28KT 2500 DZRA BKN003
  • 060825Z AUTO 20015KT 170V230 2700 R23/2900D DZ BKN003 FEW015CB 06/06 Q1005 YLO 20017G28KT 2500 DZRA BKN003
  • 060802Z AUTO 21016KT 170V230 3300 R23/P3000N DZ BKN003 FEW015CB 06/06 Q1005 YLO 20017G28KT 2500 DZRA BKN003
  • 060755Z AUTO 20015KT 170V230 3100 R23/P3000N DZRA BKN003 FEW015CB 06/06 Q1005 REDZ YLO 20017G28KT 2500 DZRA BKN003
  • 060741Z AUTO 21015KT 170V230 3400 R23/P3000U -RA BKN003 FEW015CB 06/06 Q1005 YLO 21017G28KT 2000 DZRA BKN003
  • 060726Z AUTO 21016KT 2300 R23/1900N +DZRA OVC003 06/06 Q1005 YLO 21017G28KT 2000 DZRA BKN003
  • 060725Z AUTO 21015KT 2300 R23/1900N -RA OVC003 06/06 Q1005 RERA REDZ YLO 21017G28KT 2000 DZRA BKN003

TAF TAF EHLW
Valid from the 06 at 10:00 until the 06 at 22:00 UTC


060912Z 0610/0622 21022KT 5000 BR BKN006 OVC010
TEMPO 0610/0619 22025G35KT 2500 RADZ BKN003
BECMG 0619/0621 9999 NSW BKN020
TEMPO 0620/0622 28017G32KT 4000 SHRA SCT012 SCT018CB
PROB40
TEMPO 0621/0622 3000 TSRA SHRA SCT010 SCT015CB
BECMG 0621/0622 28015KT



MET'MAP, your aeronautical weather chart ! - Copyright ORBIFLY December 2007 - Disclaimer

ORBIFLY MET'MAP TEAM :

Programming & Development : Alexandra Zaïnal
Concept & original design : Baudouin d'Aumeries
Assistance for programming : Marc-Olivier Méhu
Technical & hardware support : Manuel Goepfert

Contact : metmap@orbifly.com




SOURCES & CREDITS :

   NOAA